Time;durP1;ratioP1;P1;durP2;ratioP2;P2;SDS_P1;SDS_P2;PMS_P1;PMS_P2;Temp;Humidity;BMP_temperature;BMP_pressure;BME280_temperature;BME280_humidity;BME280_pressure;Samples;Min_cycle;Max_cycle;Signal;HPM_P1;HPM_P2
2023/04/12 00:00:14;;;;;;;8.35;4.60;;;;;;;;;;6246281;28;20080;-73
2023/04/12 00:03:19;;;;;;;7.47;4.65;;;;;;;;;;6241885;28;20249;-74
2023/04/12 00:06:24;;;;;;;7.93;4.20;;;;;;;;;;6241903;28;20103;-74
2023/04/12 00:09:29;;;;;;;12.25;4.97;;;;;;;;;;6238220;28;20057;-73
2023/04/12 00:12:31;;;;;;;8.75;4.53;;;;;;;;;;6245815;28;20045;-73
2023/04/12 00:15:32;;;;;;;9.77;4.43;;;;;;;;;;6241882;28;20085;-73
2023/04/12 00:18:35;;;;;;;7.35;4.20;;;;;;;;;;6238342;28;20112;-73
2023/04/12 00:21:37;;;;;;;6.50;4.63;;;;;;;;;;6242168;28;20226;-73
2023/04/12 00:24:39;;;;;;;7.35;4.65;;;;;;;;;;6238511;28;20053;-74
2023/04/12 00:27:41;;;;;;;7.05;4.20;;;;;;;;;;6244480;28;20068;-73
2023/04/12 00:30:44;;;;;;;9.02;4.95;;;;;;;;;;6240041;28;21590;-73
2023/04/12 00:33:48;;;;;;;6.47;4.25;;;;;;;;;;6240041;28;20677;-74
2023/04/12 00:36:50;;;;;;;7.75;5.13;;;;;;;;;;6240880;28;20060;-73
2023/04/12 00:39:51;;;;;;;9.65;5.00;;;;;;;;;;6240831;28;20061;-73
2023/04/12 00:42:53;;;;;;;8.45;5.55;;;;;;;;;;6240877;28;20345;-73
2023/04/12 00:45:56;;;;;;;8.23;5.10;;;;;;;;;;6239118;28;20061;-73
2023/04/12 00:48:59;;;;;;;7.03;5.67;;;;;;;;;;6241270;28;20071;-73
2023/04/12 00:52:04;;;;;;;8.40;5.20;;;;;;;;;;6236063;28;20045;-73
2023/04/12 00:55:08;;;;;;;9.30;5.32;;;;;;;;;;6244218;28;20049;-73
2023/04/12 00:58:09;;;;;;;9.73;5.90;;;;;;;;;;6240491;28;20064;-73
2023/04/12 01:01:11;;;;;;;8.43;5.53;;;;;;;;;;6240728;28;20053;-73
2023/04/12 01:04:14;;;;;;;11.40;5.90;;;;;;;;;;6243181;28;20357;-73
2023/04/12 01:07:21;;;;;;;8.10;5.35;;;;;;;;;;6238366;28;20308;-73
2023/04/12 01:10:32;;;;;;;10.15;5.93;;;;;;;;;;6239353;28;20081;-74
2023/04/12 01:13:44;;;;;;;8.27;5.40;;;;;;;;;;6238004;28;20067;-74
2023/04/12 01:16:49;;;;;;;10.30;6.30;;;;;;;;;;6237090;28;20077;-74
2023/04/12 01:19:58;;;;;;;8.05;5.70;;;;;;;;;;6239031;28;20061;-73
2023/04/12 01:23:15;;;;;;;5.78;5.18;;;;;;;;;;6241576;28;20049;-73
2023/04/12 01:26:31;;;;;;;8.10;5.30;;;;;;;;;;6241069;28;20077;-73
2023/04/12 01:29:38;;;;;;;7.38;5.55;;;;;;;;;;6237710;28;20058;-73
2023/04/12 01:32:40;;;;;;;7.35;5.55;;;;;;;;;;6238273;28;20050;-73
2023/04/12 01:35:42;;;;;;;8.45;5.65;;;;;;;;;;6239885;28;20730;-74
2023/04/12 01:38:44;;;;;;;11.60;6.28;;;;;;;;;;6240142;28;20053;-73
2023/04/12 01:41:47;;;;;;;15.48;5.70;;;;;;;;;;6240954;28;20062;-73
2023/04/12 01:44:51;;;;;;;8.45;5.72;;;;;;;;;;6237358;28;20072;-74
2023/04/12 01:47:52;;;;;;;8.00;5.95;;;;;;;;;;6239560;28;20385;-73
2023/04/12 01:51:03;;;;;;;8.60;5.57;;;;;;;;;;6240230;28;20147;-73
2023/04/12 01:54:10;;;;;;;8.55;5.25;;;;;;;;;;6243782;28;20053;-74
2023/04/12 01:57:13;;;;;;;11.77;5.47;;;;;;;;;;6244267;28;20056;-73
2023/04/12 02:00:17;;;;;;;9.30;5.72;;;;;;;;;;6241006;28;20663;-73
2023/04/12 02:03:19;;;;;;;;;;;;;;;;;;6244634;28;20054;-74
2023/04/12 02:06:20;;;;;;;8.88;5.93;;;;;;;;;;6245941;28;20152;-73
2023/04/12 02:09:22;;;;;;;11.65;7.53;;;;;;;;;;6244019;28;20046;-73
2023/04/12 02:12:24;;;;;;;10.10;5.93;;;;;;;;;;6243653;28;20072;-73
2023/04/12 02:15:27;;;;;;;9.02;6.00;;;;;;;;;;6241393;28;20338;-73
2023/04/12 02:18:29;;;;;;;11.32;7.68;;;;;;;;;;6243871;28;20249;-73
2023/04/12 02:21:39;;;;;;;10.15;7.00;;;;;;;;;;6246277;28;20058;-73
2023/04/12 02:24:41;;;;;;;11.15;7.95;;;;;;;;;;6246492;28;20041;-73
2023/04/12 02:27:43;;;;;;;9.23;7.60;;;;;;;;;;6241569;28;20053;-74
2023/04/12 02:30:46;;;;;;;12.68;8.35;;;;;;;;;;6242243;28;20053;-74
2023/04/12 02:33:47;;;;;;;12.35;8.43;;;;;;;;;;6239839;28;20303;-73
2023/04/12 02:36:49;;;;;;;14.10;9.10;;;;;;;;;;6245271;28;20058;-73
2023/04/12 02:39:51;;;;;;;11.80;9.05;;;;;;;;;;6240278;28;20057;-73
2023/04/12 02:42:52;;;;;;;18.17;9.63;;;;;;;;;;6242112;28;20046;-73
2023/04/12 02:45:55;;;;;;;13.40;9.82;;;;;;;;;;6243039;28;20084;-73
2023/04/12 02:48:57;;;;;;;12.98;10.10;;;;;;;;;;6242239;28;20221;-73
2023/04/12 02:51:59;;;;;;;12.70;10.10;;;;;;;;;;6243907;28;20046;-74
2023/04/12 02:55:00;;;;;;;12.15;10.38;;;;;;;;;;6244258;28;20053;-73
2023/04/12 02:58:02;;;;;;;14.18;11.27;;;;;;;;;;6244323;28;20116;-73
2023/04/12 03:01:06;;;;;;;13.68;10.55;;;;;;;;;;6243945;28;20249;-73
2023/04/12 03:04:08;;;;;;;13.05;10.95;;;;;;;;;;6239772;28;20185;-73
2023/04/12 03:07:09;;;;;;;13.48;10.43;;;;;;;;;;6247740;28;20091;-73
2023/04/12 03:10:12;;;;;;;16.40;10.82;;;;;;;;;;6241452;28;20245;-73
2023/04/12 03:13:13;;;;;;;15.93;10.63;;;;;;;;;;6244338;28;20364;-73
2023/04/12 03:16:23;;;;;;;14.30;9.85;;;;;;;;;;6242888;28;20284;-74
2023/04/12 03:19:25;;;;;;;16.33;9.68;;;;;;;;;;6241536;28;20308;-73
2023/04/12 03:22:26;;;;;;;15.40;9.88;;;;;;;;;;6243975;28;20107;-73
2023/04/12 03:25:28;;;;;;;14.20;9.93;;;;;;;;;;6239637;28;20053;-73
2023/04/12 03:28:29;;;;;;;15.63;9.73;;;;;;;;;;6242858;28;20053;-73
2023/04/12 03:31:32;;;;;;;13.60;9.57;;;;;;;;;;6242240;28;20049;-73
2023/04/12 03:34:34;;;;;;;13.73;9.95;;;;;;;;;;6243139;28;20053;-73
2023/04/12 03:37:36;;;;;;;14.90;9.45;;;;;;;;;;6239944;28;20257;-73
2023/04/12 03:40:37;;;;;;;14.43;9.50;;;;;;;;;;6240326;28;20045;-74
2023/04/12 03:43:41;;;;;;;16.20;9.27;;;;;;;;;;6239782;28;20230;-73
2023/04/12 03:46:44;;;;;;;14.70;9.60;;;;;;;;;;6242913;28;20050;-73
2023/04/12 03:49:46;;;;;;;12.90;9.13;;;;;;;;;;6242693;28;20064;-73
2023/04/12 03:52:49;;;;;;;15.73;9.73;;;;;;;;;;6240906;28;20119;-74
2023/04/12 03:55:50;;;;;;;15.45;9.30;;;;;;;;;;6242331;28;20041;-73
2023/04/12 03:58:52;;;;;;;15.48;9.40;;;;;;;;;;6244897;28;21989;-73
2023/04/12 04:01:55;;;;;;;15.93;9.93;;;;;;;;;;6238988;28;20095;-73
2023/04/12 04:04:56;;;;;;;20.67;10.65;;;;;;;;;;6243846;28;20045;-73
2023/04/12 04:07:59;;;;;;;13.15;8.82;;;;;;;;;;6244314;28;20057;-73
2023/04/12 04:11:01;;;;;;;14.93;8.50;;;;;;;;;;6246896;28;20348;-73
2023/04/12 04:14:02;;;;;;;14.52;9.80;;;;;;;;;;6244286;28;20064;-73
2023/04/12 04:17:05;;;;;;;15.88;9.30;;;;;;;;;;6245659;28;20353;-73
2023/04/12 04:20:11;;;;;;;17.08;10.00;;;;;;;;;;6246230;28;20061;-73
2023/04/12 04:23:12;;;;;;;14.50;8.88;;;;;;;;;;6244120;28;20077;-73
2023/04/12 04:26:15;;;;;;;16.67;9.68;;;;;;;;;;6246211;28;20721;-73
2023/04/12 04:29:17;;;;;;;17.13;9.35;;;;;;;;;;6246341;28;20076;-73
2023/04/12 04:32:20;;;;;;;15.90;8.90;;;;;;;;;;6244237;28;20065;-73
2023/04/12 04:35:22;;;;;;;15.73;9.45;;;;;;;;;;6241642;28;20123;-73
2023/04/12 04:38:25;;;;;;;16.02;9.27;;;;;;;;;;6240722;28;20143;-73
2023/04/12 04:41:26;;;;;;;14.23;9.15;;;;;;;;;;6238286;28;20072;-73
2023/04/12 04:44:28;;;;;;;16.58;9.52;;;;;;;;;;6239320;28;20041;-74
2023/04/12 04:47:31;;;;;;;17.35;8.93;;;;;;;;;;6237079;28;20063;-73
2023/04/12 04:50:33;;;;;;;14.90;9.15;;;;;;;;;;6239018;28;20057;-73
2023/04/12 04:53:35;;;;;;;16.00;9.32;;;;;;;;;;6240555;28;20061;-73
2023/04/12 04:56:36;;;;;;;15.25;9.48;;;;;;;;;;6239290;28;20058;-74
2023/04/12 04:59:38;;;;;;;16.98;9.70;;;;;;;;;;6241396;28;20065;-74
2023/04/12 05:02:42;;;;;;;16.60;9.80;;;;;;;;;;6238996;28;20101;-73
2023/04/12 05:05:44;;;;;;;17.73;9.63;;;;;;;;;;6241095;28;20333;-73
2023/04/12 05:08:45;;;;;;;15.85;8.70;;;;;;;;;;6238527;28;20046;-73
2023/04/12 05:11:47;;;;;;;16.52;9.52;;;;;;;;;;6227477;28;20230;-75
2023/04/12 05:14:49;;;;;;;18.75;9.48;;;;;;;;;;6238961;28;20103;-74
2023/04/12 05:17:52;;;;;;;18.00;9.23;;;;;;;;;;6234780;28;20052;-76
2023/04/12 05:20:53;;;;;;;15.73;9.02;;;;;;;;;;6244267;28;20061;-76
2023/04/12 05:23:55;;;;;;;19.08;9.13;;;;;;;;;;6240524;28;20042;-73
2023/04/12 05:26:57;;;;;;;17.88;8.43;;;;;;;;;;6242972;28;20058;-73
2023/04/12 05:29:59;;;;;;;17.10;9.30;;;;;;;;;;6242341;28;20120;-73
2023/04/12 05:33:02;;;;;;;16.67;9.45;;;;;;;;;;6242234;28;20132;-74
2023/04/12 05:36:05;;;;;;;15.10;10.13;;;;;;;;;;6242961;28;20703;-74
2023/04/12 05:39:06;;;;;;;19.15;10.07;;;;;;;;;;6243077;28;20049;-73
2023/04/12 05:42:08;;;;;;;15.23;8.77;;;;;;;;;;6242109;28;20121;-73
2023/04/12 05:45:10;;;;;;;21.00;9.10;;;;;;;;;;6241810;28;20341;-73
2023/04/12 05:48:13;;;;;;;16.10;9.02;;;;;;;;;;6240431;28;20049;-73
2023/04/12 05:51:15;;;;;;;13.55;8.95;;;;;;;;;;6241970;28;20061;-74
2023/04/12 05:54:19;;;;;;;15.95;8.73;;;;;;;;;;6244160;28;20057;-73
2023/04/12 05:57:21;;;;;;;16.27;8.98;;;;;;;;;;6242285;28;20053;-73
2023/04/12 06:00:23;;;;;;;19.77;9.98;;;;;;;;;;6244892;28;20131;-73
2023/04/12 06:03:28;;;;;;;17.50;9.15;;;;;;;;;;6243022;28;20117;-73
2023/04/12 06:06:30;;;;;;;18.75;9.55;;;;;;;;;;6236337;28;20080;-75
2023/04/12 06:09:32;;;;;;;20.30;9.65;;;;;;;;;;6240550;28;20574;-75
2023/04/12 06:12:33;;;;;;;18.52;9.65;;;;;;;;;;6239239;28;20452;-75
2023/04/12 06:15:36;;;;;;;15.18;8.52;;;;;;;;;;6236046;28;20388;-77
2023/04/12 06:18:39;;;;;;;21.90;9.20;;;;;;;;;;6238813;28;20183;-76
2023/04/12 06:21:40;;;;;;;20.00;9.65;;;;;;;;;;6236504;28;20053;-82
2023/04/12 06:24:42;;;;;;;15.77;9.15;;;;;;;;;;6241930;28;20103;-76
2023/04/12 06:27:44;;;;;;;15.95;9.18;;;;;;;;;;6234960;28;20438;-76
2023/04/12 06:30:45;;;;;;;14.15;8.57;;;;;;;;;;6237419;28;20046;-75
2023/04/12 06:33:49;;;;;;;15.10;8.93;;;;;;;;;;6238118;28;20049;-73
2023/04/12 06:36:50;;;;;;;20.80;9.55;;;;;;;;;;6238413;28;20249;-79
2023/04/12 06:39:52;;;;;;;15.88;9.20;;;;;;;;;;6243619;28;20060;-76
2023/04/12 06:42:54;;;;;;;14.32;9.45;;;;;;;;;;6245484;28;20049;-77
2023/04/12 06:45:56;;;;;;;14.65;9.57;;;;;;;;;;6244226;28;20076;-75
2023/04/12 06:48:59;;;;;;;14.60;8.85;;;;;;;;;;6241531;28;20488;-76
2023/04/12 06:52:00;;;;;;;16.92;9.15;;;;;;;;;;6239792;28;20046;-74
2023/04/12 06:55:02;;;;;;;20.13;9.07;;;;;;;;;;6246071;28;20053;-74
2023/04/12 06:58:03;;;;;;;17.75;10.05;;;;;;;;;;6242540;28;20302;-74
2023/04/12 07:01:06;;;;;;;15.88;9.20;;;;;;;;;;6242981;28;20488;-74
2023/04/12 07:04:09;;;;;;;15.82;9.23;;;;;;;;;;6242534;28;20095;-74
2023/04/12 07:07:10;;;;;;;16.95;9.68;;;;;;;;;;6242568;28;20076;-74
2023/04/12 07:10:12;;;;;;;18.25;9.55;;;;;;;;;;6241039;28;20049;-74
2023/04/12 07:13:14;;;;;;;17.02;9.85;;;;;;;;;;6245620;28;20049;-74
2023/04/12 07:16:15;;;;;;;17.30;9.68;;;;;;;;;;6242235;28;20053;-74
2023/04/12 07:19:18;;;;;;;17.58;10.13;;;;;;;;;;6244427;28;20053;-74
2023/04/12 07:22:20;;;;;;;19.30;9.65;;;;;;;;;;6243926;28;20100;-74
2023/04/12 07:25:21;;;;;;;16.77;9.32;;;;;;;;;;6243044;28;20057;-74
2023/04/12 07:28:23;;;;;;;16.48;9.50;;;;;;;;;;6242459;28;20061;-74
2023/04/12 07:31:25;;;;;;;14.77;9.02;;;;;;;;;;6240202;28;20061;-74
2023/04/12 07:34:28;;;;;;;16.08;9.48;;;;;;;;;;6240454;28;20049;-74
2023/04/12 07:37:29;;;;;;;15.93;9.50;;;;;;;;;;6242364;28;20053;-74
2023/04/12 07:40:31;;;;;;;16.65;9.40;;;;;;;;;;6243413;28;20049;-74
2023/04/12 07:43:32;;;;;;;16.55;9.57;;;;;;;;;;6240976;28;20046;-74
2023/04/12 07:46:34;;;;;;;16.42;9.07;;;;;;;;;;6241964;28;20064;-74
2023/04/12 07:49:37;;;;;;;18.63;9.55;;;;;;;;;;6239902;28;20058;-74
2023/04/12 07:52:39;;;;;;;16.27;9.55;;;;;;;;;;6240446;28;20061;-74
2023/04/12 07:55:41;;;;;;;18.80;9.73;;;;;;;;;;6243594;28;20059;-74
2023/04/12 07:58:42;;;;;;;16.20;9.60;;;;;;;;;;6244818;28;20060;-74
2023/04/12 08:01:44;;;;;;;17.27;10.15;;;;;;;;;;6241287;28;20054;-74
2023/04/12 08:04:47;;;;;;;17.27;9.57;;;;;;;;;;6242140;28;20122;-74
2023/04/12 08:07:49;;;;;;;13.90;8.97;;;;;;;;;;6242275;28;20061;-75
2023/04/12 08:10:51;;;;;;;14.18;9.40;;;;;;;;;;6240952;28;20045;-74
2023/04/12 08:13:53;;;;;;;14.68;8.88;;;;;;;;;;6243264;28;20061;-74
2023/04/12 08:16:55;;;;;;;17.75;9.27;;;;;;;;;;6240703;28;20057;-74
2023/04/12 08:19:58;;;;;;;13.13;8.85;;;;;;;;;;6241327;28;20053;-74
2023/04/12 08:22:59;;;;;;;15.10;8.52;;;;;;;;;;6241875;28;20064;-74
2023/04/12 08:26:02;;;;;;;13.60;9.13;;;;;;;;;;6239991;28;20058;-74
2023/04/12 08:29:04;;;;;;;15.10;9.35;;;;;;;;;;6241842;28;20059;-74
2023/04/12 08:32:06;;;;;;;17.13;8.65;;;;;;;;;;6240694;28;20138;-74
2023/04/12 08:35:10;;;;;;;20.27;8.40;;;;;;;;;;6239177;28;20146;-74
2023/04/12 08:38:11;;;;;;;17.65;8.27;;;;;;;;;;6241550;28;20144;-74
2023/04/12 08:41:13;;;;;;;21.63;9.50;;;;;;;;;;6242163;28;20052;-76
2023/04/12 08:44:15;;;;;;;19.80;10.10;;;;;;;;;;6239957;28;20046;-75
2023/04/12 08:47:17;;;;;;;15.48;8.88;;;;;;;;;;6240096;28;20099;-74
2023/04/12 08:50:21;;;;;;;18.65;9.75;;;;;;;;;;6240537;28;20072;-75
2023/04/12 08:53:22;;;;;;;16.42;9.65;;;;;;;;;;6239040;28;20053;-75
2023/04/12 08:56:24;;;;;;;16.85;9.23;;;;;;;;;;6240816;28;20056;-74
2023/04/12 08:59:27;;;;;;;16.95;9.10;;;;;;;;;;6239548;28;20433;-75
2023/04/12 09:02:29;;;;;;;14.50;9.43;;;;;;;;;;6239219;28;20057;-74
2023/04/12 09:05:33;;;;;;;15.15;9.48;;;;;;;;;;6240093;28;20057;-76
2023/04/12 09:08:35;;;;;;;17.25;8.73;;;;;;;;;;6240596;28;20403;-75
2023/04/12 09:11:36;;;;;;;15.88;8.70;;;;;;;;;;6238705;28;20344;-76
2023/04/12 09:14:38;;;;;;;16.42;8.48;;;;;;;;;;6238607;28;20365;-75
2023/04/12 09:17:40;;;;;;;14.15;8.68;;;;;;;;;;6237931;28;20131;-74
2023/04/12 09:20:44;;;;;;;17.27;9.30;;;;;;;;;;6238221;28;20057;-77
2023/04/12 09:24:02;;;;;;;16.10;9.27;;;;;;;;;;6239703;28;20109;-78
2023/04/12 09:27:05;;;;;;;13.48;8.65;;;;;;;;;;6238094;28;20065;-77
2023/04/12 09:30:08;;;;;;;15.23;9.30;;;;;;;;;;6238920;28;20053;-76
2023/04/12 09:33:12;;;;;;;14.25;8.82;;;;;;;;;;6236871;28;20472;-76
2023/04/12 09:36:17;;;;;;;13.95;8.98;;;;;;;;;;6238518;28;20049;-76
2023/04/12 09:39:19;;;;;;;12.20;8.05;;;;;;;;;;6239146;28;20286;-76
2023/04/12 09:42:21;;;;;;;16.05;8.90;;;;;;;;;;6236026;28;20095;-77
2023/04/12 09:45:24;;;;;;;12.93;9.10;;;;;;;;;;6236513;28;20041;-76
2023/04/12 09:48:27;;;;;;;15.70;8.43;;;;;;;;;;6240702;28;20172;-76
2023/04/12 09:51:32;;;;;;;12.88;7.97;;;;;;;;;;6238593;28;20116;-76
2023/04/12 09:54:38;;;;;;;11.45;7.93;;;;;;;;;;6239799;28;20057;-77
2023/04/12 09:57:42;;;;;;;11.88;8.40;;;;;;;;;;6238321;28;20053;-77
2023/04/12 10:00:44;;;;;;;14.43;7.55;;;;;;;;;;6239791;28;20437;-79
2023/04/12 10:03:47;;;;;;;13.93;8.43;;;;;;;;;;6237156;28;20053;-75
2023/04/12 10:06:50;;;;;;;14.38;8.68;;;;;;;;;;6241499;28;20061;-79
2023/04/12 10:09:52;;;;;;;12.73;8.70;;;;;;;;;;6238236;28;20100;-76
2023/04/12 10:12:54;;;;;;;13.35;8.48;;;;;;;;;;6244390;28;20053;-74
2023/04/12 10:15:56;;;;;;;10.45;7.63;;;;;;;;;;6243057;28;20236;-77
2023/04/12 10:18:59;;;;;;;13.23;8.32;;;;;;;;;;6244598;28;20041;-77
2023/04/12 10:22:02;;;;;;;13.80;8.32;;;;;;;;;;6243147;28;20056;-79
2023/04/12 10:25:05;;;;;;;11.63;8.70;;;;;;;;;;6245899;28;20053;-75
2023/04/12 10:28:15;;;;;;;16.55;9.45;;;;;;;;;;6244264;28;20467;-74
2023/04/12 10:31:29;;;;;;;14.77;8.82;;;;;;;;;;6244245;28;20054;-73
2023/04/12 10:34:31;;;;;;;13.85;8.82;;;;;;;;;;6242298;28;20059;-73
2023/04/12 10:37:59;;;;;;;15.50;8.60;;;;;;;;;;6241551;28;20045;-73
2023/04/12 10:41:23;;;;;;;14.55;10.80;;;;;;;;;;6243710;28;21280;-71
2023/04/12 10:44:25;;;;;;;15.80;9.10;;;;;;;;;;6234411;28;20563;-74
2023/04/12 10:47:55;;;;;;;13.38;9.35;;;;;;;;;;6241080;28;20056;-74
2023/04/12 10:51:21;;;;;;;15.27;8.50;;;;;;;;;;6240495;28;20050;-76
2023/04/12 10:54:35;;;;;;;12.80;8.80;;;;;;;;;;6235965;28;20289;-77
2023/04/12 10:57:48;;;;;;;11.85;8.57;;;;;;;;;;6240722;28;20069;-76
2023/04/12 11:01:11;;;;;;;14.07;8.80;;;;;;;;;;6243633;28;20777;-76
2023/04/12 11:04:17;;;;;;;12.90;9.63;;;;;;;;;;6241994;28;20057;-75
2023/04/12 11:07:18;;;;;;;17.50;9.55;;;;;;;;;;6241641;28;20061;-76
2023/04/12 11:10:24;;;;;;;16.45;9.35;;;;;;;;;;6242355;28;20050;-76
2023/04/12 11:13:26;;;;;;;14.93;8.98;;;;;;;;;;6238553;28;20362;-76
2023/04/12 11:16:27;;;;;;;14.45;9.15;;;;;;;;;;6244732;28;20099;-76
2023/04/12 11:19:29;;;;;;;14.43;10.05;;;;;;;;;;6240180;28;20148;-76
2023/04/12 11:22:32;;;;;;;12.55;8.95;;;;;;;;;;6242193;28;20072;-76
2023/04/12 11:25:36;;;;;;;13.00;9.20;;;;;;;;;;6243279;28;20056;-76
2023/04/12 11:28:37;;;;;;;;;;;;;;;;;;6245712;28;20057;-77
2023/04/12 11:31:39;;;;;;;12.15;9.05;;;;;;;;;;6245665;28;20399;-74
2023/04/12 11:34:42;;;;;;;13.95;8.30;;;;;;;;;;6248950;28;20064;-76
2023/04/12 11:37:44;;;;;;;16.53;8.50;;;;;;;;;;6246199;28;20121;-80
2023/04/12 11:40:48;;;;;;;10.75;8.05;;;;;;;;;;6248005;28;20139;-74
2023/04/12 11:43:49;;;;;;;12.50;8.77;;;;;;;;;;6246179;28;20071;-80
2023/04/12 11:46:51;;;;;;;15.60;9.25;;;;;;;;;;6247448;28;20131;-80
2023/04/12 11:49:55;;;;;;;20.83;8.52;;;;;;;;;;6248204;28;20068;-78
2023/04/12 11:53:09;;;;;;;9.88;7.80;;;;;;;;;;6244643;28;20357;-74
2023/04/12 11:56:12;;;;;;;13.07;8.43;;;;;;;;;;6246801;28;20116;-74
2023/04/12 11:59:14;;;;;;;12.32;8.63;;;;;;;;;;6243978;28;20103;-74
2023/04/12 12:02:17;;;;;;;11.23;8.15;;;;;;;;;;6247430;28;20063;-74
2023/04/12 12:05:19;;;;;;;10.90;7.53;;;;;;;;;;6241636;28;20061;-74
2023/04/12 12:08:23;;;;;;;17.25;8.35;;;;;;;;;;6245079;28;20482;-75
2023/04/12 12:11:26;;;;;;;;;;;;;;;;;;6245470;28;20337;-74
2023/04/12 12:14:28;;;;;;;9.82;7.10;;;;;;;;;;6245494;28;19984;-74
2023/04/12 12:17:30;;;;;;;12.20;7.55;;;;;;;;;;6244704;28;20049;-74
2023/04/12 12:20:31;;;;;;;13.35;7.70;;;;;;;;;;6248119;28;20058;-80
2023/04/12 12:23:34;;;;;;;12.15;8.32;;;;;;;;;;6246370;28;20053;-80
2023/04/12 12:26:37;;;;;;;12.13;8.55;;;;;;;;;;6247197;28;20085;-80
2023/04/12 12:29:39;;;;;;;13.30;8.07;;;;;;;;;;6246770;28;21431;-79
2023/04/12 12:32:41;;;;;;;13.13;8.75;;;;;;;;;;6243946;28;20083;-77
2023/04/12 12:35:44;;;;;;;11.40;8.07;;;;;;;;;;6240395;28;20337;-77
2023/04/12 12:38:47;;;;;;;18.52;7.88;;;;;;;;;;6246233;28;20116;-77
2023/04/12 12:41:55;;;;;;;10.52;7.88;;;;;;;;;;6247362;28;20049;-76
2023/04/12 12:44:57;;;;;;;10.93;8.05;;;;;;;;;;6242876;28;20045;-76
2023/04/12 12:48:01;;;;;;;15.43;8.25;;;;;;;;;;6239815;28;20057;-76
2023/04/12 12:51:02;;;;;;;10.75;6.80;;;;;;;;;;6246662;28;20120;-77
2023/04/12 12:54:04;;;;;;;11.73;7.72;;;;;;;;;;6241731;28;20053;-76
2023/04/12 12:57:07;;;;;;;13.80;6.85;;;;;;;;;;6242490;28;20109;-76
2023/04/12 13:00:11;;;;;;;13.25;7.15;;;;;;;;;;6237827;28;20099;-76
2023/04/12 13:03:12;;;;;;;10.80;6.80;;;;;;;;;;6239487;28;20067;-76
2023/04/12 13:06:14;;;;;;;11.90;7.55;;;;;;;;;;6237459;28;20376;-76
2023/04/12 13:09:15;;;;;;;12.50;7.53;;;;;;;;;;6236582;28;20049;-75
2023/04/12 13:12:20;;;;;;;11.63;7.25;;;;;;;;;;6242541;28;20061;-76
2023/04/12 13:15:22;;;;;;;12.02;7.63;;;;;;;;;;6240770;28;20346;-77
2023/04/12 13:18:24;;;;;;;11.75;6.90;;;;;;;;;;6241263;28;20053;-76
2023/04/12 13:21:26;;;;;;;12.82;7.13;;;;;;;;;;6241900;28;20353;-77
2023/04/12 13:24:27;;;;;;;12.32;7.57;;;;;;;;;;6241842;28;20529;-76
2023/04/12 13:27:31;;;;;;;12.25;7.72;;;;;;;;;;6238892;28;20261;-77
2023/04/12 13:30:33;;;;;;;13.18;8.00;;;;;;;;;;6238270;28;20353;-76
2023/04/12 13:33:35;;;;;;;13.93;8.00;;;;;;;;;;6240163;28;20215;-77
2023/04/12 13:36:36;;;;;;;13.25;7.30;;;;;;;;;;6240181;28;20126;-76
2023/04/12 13:39:39;;;;;;;11.85;8.10;;;;;;;;;;6240262;28;20054;-76
2023/04/12 13:42:42;;;;;;;10.90;7.40;;;;;;;;;;6241274;28;20128;-76
2023/04/12 13:45:43;;;;;;;13.00;8.57;;;;;;;;;;6238934;28;20329;-77
2023/04/12 13:48:45;;;;;;;15.45;8.48;;;;;;;;;;6245278;28;20061;-76
2023/04/12 13:51:47;;;;;;;15.18;7.65;;;;;;;;;;6248485;28;20049;-75
2023/04/12 13:54:50;;;;;;;11.35;7.78;;;;;;;;;;6245911;28;20084;-77
2023/04/12 13:57:53;;;;;;;12.38;7.95;;;;;;;;;;6246468;28;20065;-77
2023/04/12 14:00:55;;;;;;;13.02;8.10;;;;;;;;;;6243618;28;20057;-77
2023/04/12 14:03:57;;;;;;;13.38;8.32;;;;;;;;;;6244810;28;20091;-77
2023/04/12 14:06:59;;;;;;;14.05;7.68;;;;;;;;;;6246482;28;20049;-76
2023/04/12 14:10:01;;;;;;;11.95;8.40;;;;;;;;;;6242954;28;20125;-77
2023/04/12 14:13:04;;;;;;;13.15;7.97;;;;;;;;;;6244005;28;20165;-77
2023/04/12 14:16:07;;;;;;;13.97;8.37;;;;;;;;;;6243976;28;20065;-75
2023/04/12 14:19:09;;;;;;;12.68;8.40;;;;;;;;;;6245988;28;20060;-77
2023/04/12 14:22:10;;;;;;;11.23;7.95;;;;;;;;;;6245457;28;20291;-76
2023/04/12 14:25:12;;;;;;;12.55;8.02;;;;;;;;;;6243338;28;20061;-76
2023/04/12 14:28:16;;;;;;;11.57;8.20;;;;;;;;;;6244289;28;20105;-77
2023/04/12 14:31:17;;;;;;;11.38;8.20;;;;;;;;;;6242152;28;20049;-76
2023/04/12 14:34:19;;;;;;;13.77;8.70;;;;;;;;;;6244748;28;20056;-77
2023/04/12 14:37:21;;;;;;;12.70;8.05;;;;;;;;;;6243204;28;20073;-78
2023/04/12 14:40:22;;;;;;;11.52;8.45;;;;;;;;;;6244010;28;20061;-77
2023/04/12 14:43:25;;;;;;;13.27;8.32;;;;;;;;;;6244233;28;20089;-77
2023/04/12 14:46:27;;;;;;;13.73;8.63;;;;;;;;;;6245121;28;20080;-76
2023/04/12 14:49:30;;;;;;;16.17;8.90;;;;;;;;;;6244318;28;20061;-79
2023/04/12 14:52:31;;;;;;;12.05;8.38;;;;;;;;;;6246493;28;20241;-78
2023/04/12 14:55:33;;;;;;;12.32;8.57;;;;;;;;;;6244389;28;20065;-77
2023/04/12 14:58:37;;;;;;;12.10;8.32;;;;;;;;;;6225409;28;20057;-75
2023/04/12 15:01:38;;;;;;;;;;;;;;;;;;6244796;28;20335;-77
2023/04/12 15:04:40;;;;;;;17.05;8.27;;;;;;;;;;6242447;28;20090;-78
2023/04/12 15:07:41;;;;;;;16.30;8.38;;;;;;;;;;6241687;28;20100;-76
2023/04/12 15:10:43;;;;;;;13.88;7.72;;;;;;;;;;6242083;28;20053;-77
2023/04/12 15:13:48;;;;;;;13.48;8.43;;;;;;;;;;6240100;28;20238;-74
2023/04/12 15:16:49;;;;;;;9.73;7.72;;;;;;;;;;6241847;28;20052;-74
2023/04/12 15:19:51;;;;;;;9.90;7.85;;;;;;;;;;6244105;28;20073;-75
2023/04/12 15:22:53;;;;;;;12.13;8.07;;;;;;;;;;6241783;28;20045;-74
2023/04/12 15:25:59;;;;;;;12.65;8.65;;;;;;;;;;6239572;28;20045;-75
2023/04/12 15:29:02;;;;;;;10.82;8.07;;;;;;;;;;6243197;28;20049;-75
2023/04/12 15:32:04;;;;;;;21.10;8.83;;;;;;;;;;6240745;28;21836;-76
2023/04/12 15:35:07;;;;;;;11.82;7.40;;;;;;;;;;6244635;28;20366;-75
2023/04/12 15:38:10;;;;;;;25.60;8.90;;;;;;;;;;6243125;28;20124;-72
2023/04/12 15:41:11;;;;;;;13.80;7.80;;;;;;;;;;6241632;28;20140;-74
2023/04/12 15:44:14;;;;;;;11.98;8.10;;;;;;;;;;6239864;28;20049;-74
2023/04/12 15:47:16;;;;;;;17.77;11.97;;;;;;;;;;6249251;28;20120;-77
2023/04/12 15:50:18;;;;;;;17.80;10.43;;;;;;;;;;6245271;28;20456;-76
2023/04/12 15:53:20;;;;;;;116.75;66.28;;;;;;;;;;6243593;28;20139;-75
2023/04/12 15:56:24;;;;;;;33.00;19.90;;;;;;;;;;6246360;28;20060;-75
2023/04/12 15:59:27;;;;;;;28.83;16.58;;;;;;;;;;6240351;28;20113;-73
2023/04/12 16:02:29;;;;;;;14.38;10.38;;;;;;;;;;6243439;28;20269;-74
2023/04/12 16:05:32;;;;;;;14.13;11.00;;;;;;;;;;6239217;28;20069;-74
2023/04/12 16:08:34;;;;;;;15.25;10.30;;;;;;;;;;6239977;28;20062;-75
2023/04/12 16:11:36;;;;;;;14.77;10.35;;;;;;;;;;6240757;28;20107;-74
2023/04/12 16:14:39;;;;;;;16.80;11.85;;;;;;;;;;6239518;28;20049;-74
2023/04/12 16:17:41;;;;;;;15.95;11.95;;;;;;;;;;6239696;28;20061;-73
2023/04/12 16:20:42;;;;;;;22.42;12.32;;;;;;;;;;6238905;28;20298;-74
2023/04/12 16:23:44;;;;;;;20.27;12.32;;;;;;;;;;6236954;28;20057;-74
2023/04/12 16:26:46;;;;;;;15.30;10.73;;;;;;;;;;6241581;28;20061;-73
2023/04/12 16:29:50;;;;;;;20.17;12.52;;;;;;;;;;6242451;28;20380;-73
2023/04/12 16:32:52;;;;;;;17.48;11.18;;;;;;;;;;6242413;28;20067;-73
2023/04/12 16:35:54;;;;;;;14.82;11.07;;;;;;;;;;6243306;28;20317;-74
2023/04/12 16:38:58;;;;;;;15.43;10.45;;;;;;;;;;6243348;28;20045;-73
2023/04/12 16:42:01;;;;;;;19.88;12.15;;;;;;;;;;6237466;28;20048;-74
2023/04/12 16:45:06;;;;;;;17.08;10.88;;;;;;;;;;6239222;28;20326;-74
2023/04/12 16:48:08;;;;;;;15.70;10.32;;;;;;;;;;6239711;28;20127;-74
2023/04/12 16:51:10;;;;;;;13.00;10.23;;;;;;;;;;6239705;28;20066;-73
2023/04/12 16:54:11;;;;;;;16.40;11.65;;;;;;;;;;6243395;28;20103;-74
2023/04/12 16:57:13;;;;;;;18.75;10.15;;;;;;;;;;6238899;28;20058;-73
2023/04/12 17:00:19;;;;;;;15.57;10.52;;;;;;;;;;6241586;28;20054;-74
2023/04/12 17:03:22;;;;;;;14.18;10.45;;;;;;;;;;6239420;28;20061;-74
2023/04/12 17:06:26;;;;;;;18.03;10.83;;;;;;;;;;6237965;28;20107;-74
2023/04/12 17:09:28;;;;;;;;;;;;;;;;;;6238713;28;20121;-74
2023/04/12 17:12:29;;;;;;;20.40;10.60;;;;;;;;;;6241698;28;19929;-73
2023/04/12 17:15:32;;;;;;;14.90;10.07;;;;;;;;;;6240523;28;20132;-74
2023/04/12 17:18:35;;;;;;;16.17;10.55;;;;;;;;;;6239696;28;20108;-73
2023/04/12 17:21:40;;;;;;;17.42;10.38;;;;;;;;;;6239788;28;20117;-74
2023/04/12 17:24:42;;;;;;;17.83;10.48;;;;;;;;;;6242778;28;20116;-74
2023/04/12 17:27:44;;;;;;;16.38;10.57;;;;;;;;;;6240911;28;20049;-74
2023/04/12 17:30:49;;;;;;;17.20;10.73;;;;;;;;;;6242327;28;20064;-73
2023/04/12 17:33:51;;;;;;;16.10;11.60;;;;;;;;;;6240612;28;20042;-73
2023/04/12 17:36:54;;;;;;;16.65;10.75;;;;;;;;;;6241709;28;20054;-74
2023/04/12 17:39:56;;;;;;;19.95;11.35;;;;;;;;;;6239592;28;20064;-74
2023/04/12 17:42:58;;;;;;;14.05;10.95;;;;;;;;;;6238525;28;20113;-74
2023/04/12 17:46:02;;;;;;;17.67;10.95;;;;;;;;;;6237201;28;20058;-74
2023/04/12 17:49:05;;;;;;;;;;;;;;;;;;6241955;28;20049;-75
2023/04/12 17:52:07;;;;;;;14.50;10.32;;;;;;;;;;6239378;28;20149;-74
2023/04/12 17:55:12;;;;;;;16.90;11.05;;;;;;;;;;6240633;28;20054;-76
2023/04/12 17:58:15;;;;;;;15.65;11.45;;;;;;;;;;6243554;28;20045;-74
2023/04/12 18:01:18;;;;;;;18.27;11.55;;;;;;;;;;6239462;28;20356;-75